Weather History for Silver Bay, MN

Change the Weather History Date:

Friday, July 4, 2014

  Actual Average Record
Temperature  
Mean Temperature 57 °F -  
Max Temperature 75 °F 70 °F 86 °F (2007)
Min Temperature 39 °F 47 °F 39 °F (2014)
Degree Days  
Heating Degree Days 8    
Growing Degree Days 7 (Base 50)    
Moisture  
Dew Point 52 °F    
Average Humidity 78    
Maximum Humidity 100    
Minimum Humidity 47    
Precipitation  
Precipitation 0.00 in - - ()
Sea Level Pressure  
Sea Level Pressure 30.18 in    
Wind  
Wind Speed 2 mph (South)    
Max Wind Speed 15 mph    
Max Gust Speed 21 mph    
Visibility 10 miles    
Events Rain    
Averages and records for this station are not official NWS values.
T = Trace of Precipitation, MM = Missing Value Source: NWS Daily Summary

Daily Weather History Graph

Daily Weather History Graph

Search for Another Location

Airport:

Trip Planner

Search our weather history database for the weather conditions in past years. The results will help you decide how hot, cold, wet, or windy it might be!

Date:

Astronomy

Jul. 04, 2014 Rise Set
Actual Time 5:15 AM CDT 9:04 PM CDT
Civil Twilight 4:35 AM CDT 9:43 PM CDT
Nautical Twilight 3:41 AM CDT 10:37 PM CDT
Astronomical Twilight 2:22 AM CDT 11:56 PM CDT
Moon 12:41 PM CDT (7/4) No Moon Set
Length of Visible Light 17h 08m
Length of Day
15h 48m
Waxing Crescent, 42% of the Moon is Illuminated
Jul 4
Waxing Crescent
Jul 5
First Quarter
Jul 12
Full
Jul 18
Last Quarter
Jul 26
New

Hourly Weather History & Observations

Time (CDT) Temp. Dew Point Humidity Pressure Visibility Wind Dir Wind Speed Gust Speed Precip Events Conditions
12:14 AM 44.6 °F 44.6 °F 100% 30.19 in 10.0 mi Calm Calm - N/A   Clear
12:34 AM 44.6 °F 44.6 °F 100% 30.19 in 10.0 mi Calm Calm - N/A   Clear
12:54 AM 44.6 °F 44.6 °F 100% 30.19 in 10.0 mi Calm Calm - N/A   Clear
1:14 AM 42.8 °F 42.8 °F 100% 30.20 in 10.0 mi Calm Calm - N/A   Clear
1:34 AM 42.8 °F 42.8 °F 100% 30.20 in 10.0 mi Calm Calm - N/A   Clear
1:54 AM 41.0 °F 41.0 °F 100% 30.20 in 10.0 mi Calm Calm - N/A   Clear
2:14 AM 42.8 °F 42.8 °F 100% 30.20 in 10.0 mi Calm Calm - N/A   Clear
2:34 AM 42.8 °F 42.8 °F 100% 30.20 in 10.0 mi Calm Calm - N/A   Clear
2:54 AM 41.0 °F 41.0 °F 100% 30.21 in 10.0 mi Calm Calm - N/A   Clear
3:14 AM 41.0 °F 41.0 °F 100% 30.21 in 10.0 mi Calm Calm - N/A   Clear
3:34 AM 42.8 °F 42.8 °F 100% 30.21 in 10.0 mi Calm Calm - N/A   Clear
3:54 AM 41.0 °F 41.0 °F 100% 30.21 in 10.0 mi Calm Calm - N/A   Clear
4:14 AM 41.0 °F 41.0 °F 100% 30.22 in 10.0 mi Calm Calm - N/A   Clear
4:34 AM 41.0 °F 41.0 °F 100% 30.22 in 10.0 mi Calm Calm - N/A   Clear
4:54 AM 41.0 °F 41.0 °F 100% 30.22 in 10.0 mi Calm Calm - N/A   Clear
5:14 AM 41.0 °F 41.0 °F 100% 30.22 in 10.0 mi Calm Calm - N/A   Clear
5:34 AM 39.2 °F 39.2 °F 100% 30.23 in 10.0 mi Calm Calm - N/A   Clear
5:54 AM 39.2 °F 39.2 °F 100% 30.23 in 10.0 mi Calm Calm - N/A   Clear
6:14 AM 41.0 °F 41.0 °F 100% 30.23 in 10.0 mi Calm Calm - N/A   Clear
6:34 AM 44.6 °F 44.6 °F 100% 30.23 in 10.0 mi Calm Calm - N/A   Clear
6:54 AM 48.2 °F 48.2 °F 100% 30.23 in 10.0 mi Calm Calm - N/A   Clear
7:14 AM 53.6 °F 53.6 °F 100% 30.24 in 10.0 mi Calm Calm - N/A   Clear
7:34 AM 57.2 °F 53.6 °F 88% 30.24 in 10.0 mi Calm Calm - N/A   Clear
7:54 AM 60.8 °F 53.6 °F 77% 30.24 in 10.0 mi Calm Calm - N/A   Clear
8:14 AM 62.6 °F 57.2 °F 82% 30.24 in 10.0 mi Calm Calm - N/A   Clear
8:34 AM 64.4 °F 57.2 °F 77% 30.24 in 10.0 mi Calm Calm - N/A   Clear
8:54 AM 66.2 °F 57.2 °F 73% 30.24 in 10.0 mi Calm Calm - N/A   Clear
9:14 AM 68.0 °F 57.2 °F 68% 30.23 in 10.0 mi South 3.5 mph - N/A   Clear
9:34 AM 69.8 °F 57.2 °F 64% 30.23 in 10.0 mi Calm Calm - N/A   Clear
9:54 AM 71.6 °F 57.2 °F 60% 30.23 in 10.0 mi South 4.6 mph - N/A   Clear
10:14 AM 71.6 °F 59.0 °F 64% 30.22 in 10.0 mi SSE 3.5 mph - N/A   Clear
10:34 AM 71.6 °F 57.2 °F 60% 30.21 in 10.0 mi SE 6.9 mph - N/A   Clear
10:54 AM 71.6 °F 55.4 °F 57% 30.21 in 10.0 mi South 8.1 mph - N/A   Clear
11:14 AM 71.6 °F 55.4 °F 57% 30.21 in 10.0 mi South 6.9 mph - N/A   Clear
11:34 AM 71.6 °F 53.6 °F 53% 30.21 in 10.0 mi South 9.2 mph - N/A   Clear
11:54 AM 73.4 °F 53.6 °F 50% 30.21 in 10.0 mi SSE 10.4 mph - N/A   Clear
12:14 PM 73.4 °F 53.6 °F 50% 30.21 in 10.0 mi South 9.2 mph - N/A   Clear
12:34 PM 73.4 °F 53.6 °F 50% 30.20 in 10.0 mi SSE 12.7 mph - N/A   Clear
12:54 PM 73.4 °F 51.8 °F 47% 30.20 in 10.0 mi South 11.5 mph - N/A   Clear
1:14 PM 73.4 °F 53.6 °F 50% 30.19 in 10.0 mi SSE 12.7 mph 17.3 mph N/A   Clear
1:34 PM 73.4 °F 53.6 °F 50% 30.19 in 10.0 mi SSE 11.5 mph 19.6 mph N/A   Clear
1:54 PM 73.4 °F 53.6 °F 50% 30.18 in 10.0 mi South 12.7 mph 18.4 mph N/A   Clear
2:14 PM 73.4 °F 53.6 °F 50% 30.17 in 10.0 mi South 15.0 mph 20.7 mph N/A   Clear
2:34 PM 75.2 °F 55.4 °F 50% 30.17 in 10.0 mi SSE 10.4 mph 16.1 mph N/A   Clear
2:54 PM 75.2 °F 55.4 °F 50% 30.17 in 10.0 mi South 9.2 mph 16.1 mph N/A   Clear
3:14 PM 75.2 °F 53.6 °F 47% 30.17 in 10.0 mi South 9.2 mph 19.6 mph N/A   Clear
3:34 PM 75.2 °F 55.4 °F 50% 30.16 in 10.0 mi South 12.7 mph 20.7 mph N/A   Clear
3:54 PM 75.2 °F 55.4 °F 50% 30.15 in 10.0 mi South 12.7 mph 16.1 mph N/A   Clear
4:14 PM 73.4 °F 55.4 °F 53% 30.15 in 10.0 mi South 10.4 mph - N/A   Clear
4:34 PM 73.4 °F 55.4 °F 53% 30.15 in 10.0 mi SSE 11.5 mph - N/A   Clear
4:54 PM 71.6 °F 57.2 °F 60% 30.14 in 10.0 mi SSE 5.8 mph - N/A   Clear
5:14 PM 69.8 °F 55.4 °F 60% 30.14 in 10.0 mi SSE 5.8 mph - N/A   Clear
5:34 PM 68.0 °F 55.4 °F 64% 30.14 in 10.0 mi SSE 5.8 mph - N/A   Clear
5:54 PM 68.0 °F 55.4 °F 64% 30.14 in 10.0 mi SSE 4.6 mph - N/A   Clear
6:14 PM 66.2 °F 55.4 °F 68% 30.14 in 10.0 mi Calm Calm - N/A   Clear
6:34 PM 66.2 °F 55.4 °F 68% 30.14 in 10.0 mi South 3.5 mph - N/A   Clear
6:54 PM 66.2 °F 55.4 °F 68% 30.13 in 10.0 mi Calm Calm - N/A   Clear
7:14 PM 66.2 °F 55.4 °F 68% 30.13 in 10.0 mi South 5.8 mph - N/A   Clear
7:34 PM 64.4 °F 55.4 °F 73% 30.13 in 10.0 mi South 6.9 mph - N/A   Clear
7:54 PM 64.4 °F 55.4 °F 73% 30.12 in 10.0 mi South 6.9 mph - N/A   Clear
8:14 PM 62.6 °F 55.4 °F 77% 30.11 in 10.0 mi Calm Calm - N/A   Clear
8:34 PM 62.6 °F 55.4 °F 77% 30.10 in 10.0 mi Calm Calm - N/A   Clear
8:54 PM 62.6 °F 55.4 °F 77% 30.10 in 10.0 mi Calm Calm - N/A   Clear
9:14 PM 60.8 °F 55.4 °F 82% 30.10 in 10.0 mi Calm Calm - N/A   Clear
9:34 PM 59.0 °F 57.2 °F 94% 30.10 in 10.0 mi Calm Calm - N/A   Clear
9:54 PM 57.2 °F 57.2 °F 100% 30.10 in 10.0 mi Calm Calm - N/A   Clear
10:14 PM 57.2 °F 57.2 °F 100% 30.09 in 10.0 mi Calm Calm - N/A Rain Light Rain
10:34 PM 57.2 °F 57.2 °F 100% 30.09 in 10.0 mi Calm Calm - N/A   Clear
10:54 PM 57.2 °F 57.2 °F 100% 30.09 in 10.0 mi Calm Calm - N/A   Clear
11:14 PM 57.2 °F 57.2 °F 100% 30.08 in 10.0 mi Calm Calm - N/A   Clear
11:34 PM 57.2 °F 57.2 °F 100% 30.08 in 10.0 mi Calm Calm - N/A   Clear
11:54 PM 57.2 °F 57.2 °F 100% 30.07 in 10.0 mi Calm Calm - N/A   Clear